sensor_id;sensor_type;location;lat;lon;timestamp;pressure;altitude;pressure_sealevel;temperature;humidity
68889;BME280;55930;47.412;8.790;2022-12-07T00:02:10;94560.13;;;0.61;100.00
68889;BME280;55930;47.412;8.790;2022-12-07T00:05:30;94562.00;;;0.57;100.00
68889;BME280;55930;47.412;8.790;2022-12-07T00:08:51;94556.50;;;0.52;100.00
68889;BME280;55930;47.412;8.790;2022-12-07T00:12:11;94555.72;;;0.55;100.00
68889;BME280;55930;47.412;8.790;2022-12-07T00:15:34;94553.13;;;0.55;100.00
68889;BME280;55930;47.412;8.790;2022-12-07T00:18:56;94549.91;;;0.44;100.00
68889;BME280;55930;47.412;8.790;2022-12-07T00:22:19;94552.25;;;0.34;100.00
68889;BME280;55930;47.412;8.790;2022-12-07T00:25:39;94549.25;;;0.36;100.00
68889;BME280;55930;47.412;8.790;2022-12-07T00:29:04;94545.06;;;0.42;100.00
68889;BME280;55930;47.412;8.790;2022-12-07T00:32:25;94550.19;;;0.49;100.00
68889;BME280;55930;47.412;8.790;2022-12-07T00:35:46;94543.75;;;0.30;100.00
68889;BME280;55930;47.412;8.790;2022-12-07T00:39:06;94539.19;;;0.38;100.00
68889;BME280;55930;47.412;8.790;2022-12-07T00:42:27;94542.06;;;0.44;100.00
68889;BME280;55930;47.412;8.790;2022-12-07T00:45:47;94542.94;;;0.33;100.00
68889;BME280;55930;47.412;8.790;2022-12-07T00:49:07;94544.22;;;0.49;100.00
68889;BME280;55930;47.412;8.790;2022-12-07T00:52:28;94544.69;;;0.44;100.00
68889;BME280;55930;47.412;8.790;2022-12-07T00:55:48;94544.22;;;0.49;100.00
68889;BME280;55930;47.412;8.790;2022-12-07T00:59:12;94543.50;;;0.48;100.00
68889;BME280;55930;47.412;8.790;2022-12-07T01:02:34;94535.34;;;0.46;100.00
68889;BME280;55930;47.412;8.790;2022-12-07T01:05:55;94544.28;;;0.45;100.00
68889;BME280;55930;47.412;8.790;2022-12-07T01:09:18;94545.28;;;0.55;100.00
68889;BME280;55930;47.412;8.790;2022-12-07T01:12:39;94543.91;;;0.47;100.00
68889;BME280;55930;47.412;8.790;2022-12-07T01:16:03;94545.88;;;0.39;100.00
68889;BME280;55930;47.412;8.790;2022-12-07T01:19:26;94541.53;;;0.29;100.00
68889;BME280;55930;47.412;8.790;2022-12-07T01:22:46;94546.47;;;0.50;100.00
68889;BME280;55930;47.412;8.790;2022-12-07T01:26:10;94545.88;;;0.39;100.00
68889;BME280;55930;47.412;8.790;2022-12-07T01:29:31;94540.25;;;0.41;100.00
68889;BME280;55930;47.412;8.790;2022-12-07T01:32:57;94543.09;;;0.50;100.00
68889;BME280;55930;47.412;8.790;2022-12-07T01:36:20;94558.91;;;0.39;100.00
68889;BME280;55930;47.412;8.790;2022-12-07T01:39:41;94548.31;;;0.50;100.00
68889;BME280;55930;47.412;8.790;2022-12-07T01:43:02;94544.56;;;0.54;100.00
68889;BME280;55930;47.412;8.790;2022-12-07T01:46:22;94548.78;;;0.45;100.00
68889;BME280;55930;47.412;8.790;2022-12-07T01:49:46;94543.94;;;0.43;100.00
68889;BME280;55930;47.412;8.790;2022-12-07T01:53:17;94537.47;;;0.55;100.00
68889;BME280;55930;47.412;8.790;2022-12-07T01:56:40;94541.97;;;0.51;100.00
68889;BME280;55930;47.412;8.790;2022-12-07T02:00:06;94552.00;;;0.56;100.00
68889;BME280;55930;47.412;8.790;2022-12-07T02:03:32;94548.69;;;0.52;100.00
68889;BME280;55930;47.412;8.790;2022-12-07T02:06:57;94541.13;;;0.57;100.00
68889;BME280;55930;47.412;8.790;2022-12-07T02:10:25;94538.25;;;0.52;100.00
68889;BME280;55930;47.412;8.790;2022-12-07T02:13:46;94534.94;;;0.48;100.00
68889;BME280;55930;47.412;8.790;2022-12-07T02:17:11;94536.19;;;0.40;100.00
68889;BME280;55930;47.412;8.790;2022-12-07T02:24:57;94533.63;;;0.63;100.00
68889;BME280;55930;47.412;8.790;2022-12-07T02:28:29;94530.44;;;0.48;100.00
68889;BME280;55930;47.412;8.790;2022-12-07T02:35:40;94531.41;;;0.61;100.00
68889;BME280;55930;47.412;8.790;2022-12-07T02:39:43;94535.97;;;0.54;100.00
68889;BME280;55930;47.412;8.790;2022-12-07T02:46:40;94525.47;;;0.57;100.00
68889;BME280;55930;47.412;8.790;2022-12-07T02:50:06;94528.44;;;0.59;100.00
68889;BME280;55930;47.412;8.790;2022-12-07T02:53:37;94527.94;;;0.68;100.00
68889;BME280;55930;47.412;8.790;2022-12-07T03:00:37;94516.97;;;0.53;100.00
68889;BME280;55930;47.412;8.790;2022-12-07T03:09:04;94522.38;;;0.66;100.00
68889;BME280;55930;47.412;8.790;2022-12-07T03:11:52;94514.72;;;0.55;100.00
68889;BME280;55930;47.412;8.790;2022-12-07T03:15:32;94511.25;;;0.62;100.00
68889;BME280;55930;47.412;8.790;2022-12-07T03:19:01;94517.84;;;0.70;100.00
68889;BME280;55930;47.412;8.790;2022-12-07T03:22:23;94514.16;;;0.67;100.00
68889;BME280;55930;47.412;8.790;2022-12-07T03:25:47;94499.28;;;0.64;100.00
68889;BME280;55930;47.412;8.790;2022-12-07T03:29:29;94511.94;;;0.66;100.00
68889;BME280;55930;47.412;8.790;2022-12-07T03:33:02;94507.09;;;0.64;100.00
68889;BME280;55930;47.412;8.790;2022-12-07T03:36:26;94504.47;;;0.68;100.00
68889;BME280;55930;47.412;8.790;2022-12-07T03:43:51;94508.91;;;0.71;100.00
68889;BME280;55930;47.412;8.790;2022-12-07T03:47:31;94520.41;;;0.73;100.00
68889;BME280;55930;47.412;8.790;2022-12-07T03:54:24;94507.75;;;0.72;100.00
68889;BME280;55930;47.412;8.790;2022-12-07T03:57:50;94516.09;;;0.63;100.00
68889;BME280;55930;47.412;8.790;2022-12-07T04:01:12;94522.97;;;0.77;100.00
68889;BME280;55930;47.412;8.790;2022-12-07T04:04:33;94511.81;;;0.73;100.00
68889;BME280;55930;47.412;8.790;2022-12-07T04:07:54;94508.09;;;0.74;100.00
68889;BME280;55930;47.412;8.790;2022-12-07T04:11:16;94503.72;;;0.67;100.00
68889;BME280;55930;47.412;8.790;2022-12-07T04:14:37;94511.06;;;0.76;100.00
68889;BME280;55930;47.412;8.790;2022-12-07T04:17:57;94515.56;;;0.72;100.00
68889;BME280;55930;47.412;8.790;2022-12-07T04:21:18;94502.09;;;0.77;100.00
68889;BME280;55930;47.412;8.790;2022-12-07T04:24:38;94499.19;;;0.71;100.00
68889;BME280;55930;47.412;8.790;2022-12-07T04:27:58;94503.22;;;0.76;100.00
68889;BME280;55930;47.412;8.790;2022-12-07T04:31:19;94494.78;;;0.65;100.00
68889;BME280;55930;47.412;8.790;2022-12-07T04:34:40;94495.78;;;0.74;100.00
68889;BME280;55930;47.412;8.790;2022-12-07T04:38:00;94496.47;;;0.79;100.00
68889;BME280;55930;47.412;8.790;2022-12-07T04:41:21;94502.75;;;0.81;100.00
68889;BME280;55930;47.412;8.790;2022-12-07T04:44:46;94508.44;;;0.76;100.00
68889;BME280;55930;47.412;8.790;2022-12-07T04:48:12;94506.97;;;0.75;100.00
68889;BME280;55930;47.412;8.790;2022-12-07T04:51:33;94512.88;;;0.79;100.00
68889;BME280;55930;47.412;8.790;2022-12-07T04:54:53;94502.72;;;0.85;100.00
68889;BME280;55930;47.412;8.790;2022-12-07T04:58:13;94507.97;;;0.81;100.00
68889;BME280;55930;47.412;8.790;2022-12-07T05:01:34;94505.78;;;0.80;100.00
68889;BME280;55930;47.412;8.790;2022-12-07T05:04:54;94515.38;;;0.86;100.00
68889;BME280;55930;47.412;8.790;2022-12-07T05:08:15;94516.16;;;0.83;100.00
68889;BME280;55930;47.412;8.790;2022-12-07T05:11:37;94509.81;;;0.84;100.00
68889;BME280;55930;47.412;8.790;2022-12-07T05:15:00;94517.69;;;0.81;100.00
68889;BME280;55930;47.412;8.790;2022-12-07T05:18:20;94504.81;;;0.70;100.00
68889;BME280;55930;47.412;8.790;2022-12-07T05:21:41;94508.81;;;0.74;100.00
68889;BME280;55930;47.412;8.790;2022-12-07T05:25:02;94509.78;;;0.61;100.00
68889;BME280;55930;47.412;8.790;2022-12-07T05:28:24;94507.09;;;0.64;100.00
68889;BME280;55930;47.412;8.790;2022-12-07T05:31:45;94505.94;;;0.69;100.00
68889;BME280;55930;47.412;8.790;2022-12-07T05:35:08;94496.66;;;0.64;100.00
68889;BME280;55930;47.412;8.790;2022-12-07T05:38:29;94506.97;;;0.75;100.00
68889;BME280;55930;47.412;8.790;2022-12-07T05:41:49;94513.75;;;0.69;100.00
68889;BME280;55930;47.412;8.790;2022-12-07T05:45:28;94515.28;;;0.66;100.00
68889;BME280;55930;47.412;8.790;2022-12-07T05:48:51;94509.00;;;0.64;100.00
68889;BME280;55930;47.412;8.790;2022-12-07T05:52:14;94509.09;;;0.57;100.00
68889;BME280;55930;47.412;8.790;2022-12-07T05:55:34;94514.91;;;0.68;100.00
68889;BME280;55930;47.412;8.790;2022-12-07T05:58:55;94510.81;;;0.67;100.00
68889;BME280;55930;47.412;8.790;2022-12-07T06:02:34;94517.91;;;0.66;100.00
68889;BME280;55930;47.412;8.790;2022-12-07T06:05:54;94509.72;;;0.64;100.00
68889;BME280;55930;47.412;8.790;2022-12-07T06:09:15;94518.59;;;0.70;100.00
68889;BME280;55930;47.412;8.790;2022-12-07T06:12:35;94511.91;;;0.69;100.00
68889;BME280;55930;47.412;8.790;2022-12-07T06:15:58;94521.50;;;0.76;100.00
68889;BME280;55930;47.412;8.790;2022-12-07T06:19:18;94516.28;;;0.76;100.00
68889;BME280;55930;47.412;8.790;2022-12-07T06:22:40;94516.38;;;0.69;100.00
68889;BME280;55930;47.412;8.790;2022-12-07T06:26:00;94519.34;;;0.71;100.00
68889;BME280;55930;47.412;8.790;2022-12-07T06:29:21;94519.44;;;0.64;100.00
68889;BME280;55930;47.412;8.790;2022-12-07T06:32:42;94525.69;;;0.70;100.00
68889;BME280;55930;47.412;8.790;2022-12-07T06:36:02;94523.19;;;0.63;100.00
68889;BME280;55930;47.412;8.790;2022-12-07T06:39:27;94524.66;;;0.64;100.00
68889;BME280;55930;47.412;8.790;2022-12-07T06:42:48;94522.38;;;0.66;100.00
68889;BME280;55930;47.412;8.790;2022-12-07T06:46:08;94525.16;;;0.55;100.00
68889;BME280;55930;47.412;8.790;2022-12-07T06:49:28;94523.50;;;0.65;100.00
68889;BME280;55930;47.412;8.790;2022-12-07T06:52:51;94523.13;;;0.66;100.00
68889;BME280;55930;47.412;8.790;2022-12-07T06:56:11;94520.53;;;0.40;100.00
68889;BME280;55930;47.412;8.790;2022-12-07T06:59:34;94520.72;;;0.52;100.00
68889;BME280;55930;47.412;8.790;2022-12-07T07:02:54;94524.44;;;0.51;100.00
68889;BME280;55930;47.412;8.790;2022-12-07T07:06:15;94526.41;;;0.44;100.00
68889;BME280;55930;47.412;8.790;2022-12-07T07:09:38;94525.56;;;0.50;100.00
68889;BME280;55930;47.412;8.790;2022-12-07T07:13:01;94524.56;;;0.44;100.00
68889;BME280;55930;47.412;8.790;2022-12-07T07:16:22;94521.75;;;0.58;100.00
68889;BME280;55930;47.412;8.790;2022-12-07T07:19:46;94514.31;;;0.57;100.00
68889;BME280;55930;47.412;8.790;2022-12-07T07:23:07;94520.56;;;0.63;100.00
68889;BME280;55930;47.412;8.790;2022-12-07T07:26:27;94520.78;;;0.72;100.00
68889;BME280;55930;47.412;8.790;2022-12-07T07:29:48;94522.72;;;0.68;100.00
68889;BME280;55930;47.412;8.790;2022-12-07T07:33:09;94517.97;;;0.63;100.00
68889;BME280;55930;47.412;8.790;2022-12-07T07:36:30;94535.88;;;0.61;100.00
68889;BME280;55930;47.412;8.790;2022-12-07T07:39:51;94529.28;;;0.53;100.00
68889;BME280;55930;47.412;8.790;2022-12-07T07:43:11;94523.28;;;0.56;100.00
68889;BME280;55930;47.412;8.790;2022-12-07T07:46:31;94530.91;;;0.70;100.00
68889;BME280;55930;47.412;8.790;2022-12-07T07:49:53;94531.94;;;0.76;100.00
68889;BME280;55930;47.412;8.790;2022-12-07T07:53:13;94538.88;;;0.86;100.00
68889;BME280;55930;47.412;8.790;2022-12-07T07:56:34;94537.94;;;0.73;100.00
68889;BME280;55930;47.412;8.790;2022-12-07T07:59:54;94545.66;;;0.80;100.00
68889;BME280;55930;47.412;8.790;2022-12-07T08:03:14;94538.88;;;0.86;100.00
68889;BME280;55930;47.412;8.790;2022-12-07T08:06:35;94543.47;;;0.79;100.00
68889;BME280;55930;47.412;8.790;2022-12-07T08:09:56;94536.81;;;0.74;100.00
68889;BME280;55930;47.412;8.790;2022-12-07T08:13:16;94542.38;;;0.76;100.00
68889;BME280;55930;47.412;8.790;2022-12-07T08:16:39;94542.25;;;0.83;100.00
68889;BME280;55930;47.412;8.790;2022-12-07T08:19:59;94542.34;;;0.80;100.00
68889;BME280;55930;47.412;8.790;2022-12-07T08:23:20;94548.72;;;1.02;100.00
68889;BME280;55930;47.412;8.790;2022-12-07T08:26:43;94552.16;;;0.95;100.00
68889;BME280;55930;47.412;8.790;2022-12-07T08:30:04;94556.19;;;1.00;100.00
68889;BME280;55930;47.412;8.790;2022-12-07T08:33:25;94545.75;;;1.00;100.00
68889;BME280;55930;47.412;8.790;2022-12-07T08:36:46;94550.69;;;0.94;100.00
68889;BME280;55930;47.412;8.790;2022-12-07T08:40:08;94546.50;;;1.00;100.00
68889;BME280;55930;47.412;8.790;2022-12-07T08:43:29;94549.84;;;1.01;100.00
68889;BME280;55930;47.412;8.790;2022-12-07T08:46:53;94562.75;;;1.11;100.00
68889;BME280;55930;47.412;8.790;2022-12-07T08:50:16;94551.50;;;1.14;100.00
68889;BME280;55930;47.412;8.790;2022-12-07T08:53:37;94557.53;;;1.11;100.00
68889;BME280;55930;47.412;8.790;2022-12-07T08:56:58;94554.50;;;1.13;100.00
68889;BME280;55930;47.412;8.790;2022-12-07T09:00:19;94550.13;;;1.06;100.00
68889;BME280;55930;47.412;8.790;2022-12-07T09:03:40;94555.69;;;1.08;100.00
68889;BME280;55930;47.412;8.790;2022-12-07T09:07:00;94557.19;;;1.09;100.00
68889;BME280;55930;47.412;8.790;2022-12-07T09:10:20;94552.31;;;1.11;100.00
68889;BME280;55930;47.412;8.790;2022-12-07T09:13:41;94551.66;;;1.04;100.00
68889;BME280;55930;47.412;8.790;2022-12-07T09:17:11;94558.16;;;1.19;100.00
68889;BME280;55930;47.412;8.790;2022-12-07T09:20:32;94560.31;;;1.24;100.00
68889;BME280;55930;47.412;8.790;2022-12-07T09:23:53;94563.56;;;1.28;100.00
68889;BME280;55930;47.412;8.790;2022-12-07T09:27:13;94570.25;;;1.33;100.00
68889;BME280;55930;47.412;8.790;2022-12-07T09:30:34;94562.88;;;1.28;100.00
68889;BME280;55930;47.412;8.790;2022-12-07T09:33:59;94568.88;;;1.25;100.00
68889;BME280;55930;47.412;8.790;2022-12-07T09:37:22;94568.59;;;1.19;100.00
68889;BME280;55930;47.412;8.790;2022-12-07T09:40:43;94567.66;;;1.29;100.00
68889;BME280;55930;47.412;8.790;2022-12-07T09:44:24;94573.31;;;1.28;100.00
68889;BME280;55930;47.412;8.790;2022-12-07T09:47:46;94566.94;;;1.29;100.00
68889;BME280;55930;47.412;8.790;2022-12-07T09:51:24;94574.09;;;1.48;100.00
68889;BME280;55930;47.412;8.790;2022-12-07T09:54:48;94565.84;;;1.49;100.00
68889;BME280;55930;47.412;8.790;2022-12-07T09:58:20;94567.13;;;1.41;100.00
68889;BME280;55930;47.412;8.790;2022-12-07T10:01:42;94558.66;;;1.34;100.00
68889;BME280;55930;47.412;8.790;2022-12-07T10:05:05;94554.84;;;1.38;100.00
68889;BME280;55930;47.412;8.790;2022-12-07T10:08:28;94557.03;;;1.63;100.00
68889;BME280;55930;47.412;8.790;2022-12-07T10:15:22;94544.72;;;1.40;100.00
68889;BME280;55930;47.412;8.790;2022-12-07T10:18:42;94540.13;;;1.48;100.00
68889;BME280;55930;47.412;8.790;2022-12-07T10:22:15;94539.66;;;1.53;100.00
68889;BME280;55930;47.412;8.790;2022-12-07T10:25:36;94537.28;;;1.82;100.00
68889;BME280;55930;47.412;8.790;2022-12-07T10:29:00;94541.03;;;1.81;100.00
68889;BME280;55930;47.412;8.790;2022-12-07T10:32:32;94530.56;;;2.01;100.00
68889;BME280;55930;47.412;8.790;2022-12-07T10:35:57;94524.91;;;2.22;100.00
68889;BME280;55930;47.412;8.790;2022-12-07T10:39:23;94525.16;;;2.47;100.00
68889;BME280;55930;47.412;8.790;2022-12-07T11:12:09;94484.88;;;2.41;100.00
68889;BME280;55930;47.412;8.790;2022-12-07T11:15:57;94475.72;;;2.49;100.00
68889;BME280;55930;47.412;8.790;2022-12-07T11:19:34;94473.38;;;2.55;100.00
68889;BME280;55930;47.412;8.790;2022-12-07T11:30:32;94465.34;;;2.10;100.00
68889;BME280;55930;47.412;8.790;2022-12-07T11:34:06;94467.59;;;2.27;100.00
68889;BME280;55930;47.412;8.790;2022-12-07T11:37:35;94465.22;;;2.33;100.00
68889;BME280;55930;47.412;8.790;2022-12-07T11:41:02;94467.84;;;2.33;100.00
68889;BME280;55930;47.412;8.790;2022-12-07T11:44:53;94465.13;;;2.20;100.00
68889;BME280;55930;47.412;8.790;2022-12-07T11:48:34;94459.78;;;2.44;100.00
68889;BME280;55930;47.412;8.790;2022-12-07T11:52:02;94456.47;;;2.40;100.00
68889;BME280;55930;47.412;8.790;2022-12-07T11:59:09;94449.69;;;2.42;100.00
68889;BME280;55930;47.412;8.790;2022-12-07T12:02:46;94447.59;;;2.53;100.00
68889;BME280;55930;47.412;8.790;2022-12-07T12:06:08;94441.84;;;2.42;100.00
68889;BME280;55930;47.412;8.790;2022-12-07T12:10:14;94434.81;;;2.39;100.00
68889;BME280;55930;47.412;8.790;2022-12-07T12:20:48;94419.75;;;2.43;100.00
68889;BME280;55930;47.412;8.790;2022-12-07T12:24:18;94421.00;;;2.55;100.00
68889;BME280;55930;47.412;8.790;2022-12-07T12:27:39;94413.28;;;2.80;100.00
68889;BME280;55930;47.412;8.790;2022-12-07T12:41:54;94418.22;;;2.78;100.00
68889;BME280;55930;47.412;8.790;2022-12-07T12:45:32;94413.72;;;2.79;100.00
68889;BME280;55930;47.412;8.790;2022-12-07T12:48:52;94416.91;;;2.86;100.00
68889;BME280;55930;47.412;8.790;2022-12-07T13:03:29;94406.59;;;2.79;100.00
68889;BME280;55930;47.412;8.790;2022-12-07T13:06:50;94402.03;;;2.96;100.00
68889;BME280;55930;47.412;8.790;2022-12-07T13:13:44;94384.03;;;2.98;100.00
68889;BME280;55930;47.412;8.790;2022-12-07T13:17:11;94384.78;;;2.98;100.00
68889;BME280;55930;47.412;8.790;2022-12-07T13:20:45;94378.78;;;2.53;100.00
68889;BME280;55930;47.412;8.790;2022-12-07T13:24:10;94377.59;;;2.86;100.00
68889;BME280;55930;47.412;8.790;2022-12-07T13:27:33;94376.09;;;3.01;100.00
68889;BME280;55930;47.412;8.790;2022-12-07T13:31:42;94374.28;;;2.98;100.00
68889;BME280;55930;47.412;8.790;2022-12-07T13:38:55;94368.88;;;3.05;100.00
68889;BME280;55930;47.412;8.790;2022-12-07T13:42:24;94372.63;;;3.33;100.00
68889;BME280;55930;47.412;8.790;2022-12-07T13:45:55;94371.47;;;3.34;99.86
68889;BME280;55930;47.412;8.790;2022-12-07T13:49:25;94366.88;;;3.38;98.82
68889;BME280;55930;47.412;8.790;2022-12-07T13:52:45;94364.53;;;3.28;99.02
68889;BME280;55930;47.412;8.790;2022-12-07T13:56:13;94367.44;;;3.17;99.91
68889;BME280;55930;47.412;8.790;2022-12-07T13:59:35;94360.91;;;3.09;100.00
68889;BME280;55930;47.412;8.790;2022-12-07T14:03:04;94362.41;;;3.10;100.00
68889;BME280;55930;47.412;8.790;2022-12-07T14:06:26;94359.25;;;3.15;100.00
68889;BME280;55930;47.412;8.790;2022-12-07T14:09:59;94354.22;;;2.79;100.00
68889;BME280;55930;47.412;8.790;2022-12-07T14:13:35;94357.88;;;3.11;100.00
68889;BME280;55930;47.412;8.790;2022-12-07T14:17:08;94358.53;;;3.27;100.00
68889;BME280;55930;47.412;8.790;2022-12-07T14:20:39;94350.94;;;3.04;100.00
68889;BME280;55930;47.412;8.790;2022-12-07T14:24:15;94354.25;;;2.92;100.00
68889;BME280;55930;47.412;8.790;2022-12-07T14:27:36;94347.66;;;2.87;100.00
68889;BME280;55930;47.412;8.790;2022-12-07T14:30:58;94346.84;;;2.74;100.00
68889;BME280;55930;47.412;8.790;2022-12-07T14:34:21;94342.75;;;2.73;100.00
68889;BME280;55930;47.412;8.790;2022-12-07T14:37:44;94349.06;;;2.76;100.00
68889;BME280;55930;47.412;8.790;2022-12-07T14:41:12;94346.13;;;2.57;100.00
68889;BME280;55930;47.412;8.790;2022-12-07T14:44:53;94348.25;;;2.62;100.00
68889;BME280;55930;47.412;8.790;2022-12-07T14:48:14;94352.03;;;2.45;100.00
68889;BME280;55930;47.412;8.790;2022-12-07T14:51:38;94346.47;;;2.59;100.00
68889;BME280;55930;47.412;8.790;2022-12-07T14:54:59;94344.00;;;2.52;100.00
68889;BME280;55930;47.412;8.790;2022-12-07T14:58:20;94345.50;;;2.21;100.00
68889;BME280;55930;47.412;8.790;2022-12-07T15:01:41;94350.00;;;2.37;100.00
68889;BME280;55930;47.412;8.790;2022-12-07T15:05:01;94342.56;;;2.35;100.00
68889;BME280;55930;47.412;8.790;2022-12-07T15:08:22;94339.72;;;2.29;100.00
68889;BME280;55930;47.412;8.790;2022-12-07T15:11:42;94338.41;;;2.21;100.00
68889;BME280;55930;47.412;8.790;2022-12-07T15:15:03;94335.44;;;2.19;100.00
68889;BME280;55930;47.412;8.790;2022-12-07T15:18:24;94341.59;;;2.13;100.00
68889;BME280;55930;47.412;8.790;2022-12-07T15:21:44;94343.06;;;2.14;100.00
68889;BME280;55930;47.412;8.790;2022-12-07T15:25:05;94341.47;;;2.00;100.00
68889;BME280;55930;47.412;8.790;2022-12-07T15:28:26;94343.28;;;2.03;100.00
68889;BME280;55930;47.412;8.790;2022-12-07T15:31:48;94348.50;;;1.87;100.00
68889;BME280;55930;47.412;8.790;2022-12-07T15:35:09;94351.22;;;1.83;100.00
68889;BME280;55930;47.412;8.790;2022-12-07T15:38:29;94343.16;;;1.58;100.00
68889;BME280;55930;47.412;8.790;2022-12-07T15:41:50;94350.72;;;1.52;100.00
68889;BME280;55930;47.412;8.790;2022-12-07T15:45:11;94346.75;;;1.64;100.00
68889;BME280;55930;47.412;8.790;2022-12-07T15:48:33;94339.56;;;1.68;100.00
68889;BME280;55930;47.412;8.790;2022-12-07T15:51:54;94336.31;;;1.64;100.00
68889;BME280;55930;47.412;8.790;2022-12-07T15:55:14;94334.97;;;1.56;100.00
68889;BME280;55930;47.412;8.790;2022-12-07T15:58:37;94338.38;;;1.53;100.00
68889;BME280;55930;47.412;8.790;2022-12-07T16:01:58;94338.88;;;1.48;100.00
68889;BME280;55930;47.412;8.790;2022-12-07T16:05:19;94332.25;;;1.43;100.00
68889;BME280;55930;47.412;8.790;2022-12-07T16:08:43;94326.94;;;1.47;100.00
68889;BME280;55930;47.412;8.790;2022-12-07T16:12:04;94331.84;;;1.45;100.00
68889;BME280;55930;47.412;8.790;2022-12-07T16:15:25;94322.28;;;1.38;100.00
68889;BME280;55930;47.412;8.790;2022-12-07T16:18:47;94326.28;;;1.43;100.00
68889;BME280;55930;47.412;8.790;2022-12-07T16:22:07;94318.72;;;1.29;100.00
68889;BME280;55930;47.412;8.790;2022-12-07T16:25:28;94324.69;;;1.29;100.00
68889;BME280;55930;47.412;8.790;2022-12-07T16:28:50;94323.22;;;1.28;100.00
68889;BME280;55930;47.412;8.790;2022-12-07T16:32:11;94322.97;;;1.23;100.00
68889;BME280;55930;47.412;8.790;2022-12-07T16:35:31;94321.38;;;1.09;100.00
68889;BME280;55930;47.412;8.790;2022-12-07T16:38:51;94322.03;;;0.93;100.00
68889;BME280;55930;47.412;8.790;2022-12-07T16:42:12;94315.81;;;1.07;100.00
68889;BME280;55930;47.412;8.790;2022-12-07T16:45:32;94311.91;;;1.15;100.00
68889;BME280;55930;47.412;8.790;2022-12-07T16:48:53;94321.16;;;1.00;100.00
68889;BME280;55930;47.412;8.790;2022-12-07T16:52:13;94316.81;;;0.93;100.00
68889;BME280;55930;47.412;8.790;2022-12-07T16:55:41;94312.19;;;1.01;100.00
68889;BME280;55930;47.412;8.790;2022-12-07T16:59:02;94308.72;;;1.07;100.00
68889;BME280;55930;47.412;8.790;2022-12-07T17:02:25;94309.78;;;1.10;100.00
68889;BME280;55930;47.412;8.790;2022-12-07T17:05:46;94308.44;;;1.02;100.00
68889;BME280;55930;47.412;8.790;2022-12-07T17:09:06;94309.50;;;1.04;100.00
68889;BME280;55930;47.412;8.790;2022-12-07T17:12:29;94313.94;;;1.07;100.00
68889;BME280;55930;47.412;8.790;2022-12-07T17:16:06;94309.91;;;1.03;100.00
68889;BME280;55930;47.412;8.790;2022-12-07T17:19:26;94307.44;;;0.96;100.00
68889;BME280;55930;47.412;8.790;2022-12-07T17:22:47;94317.56;;;0.94;100.00
68889;BME280;55930;47.412;8.790;2022-12-07T17:26:10;94308.25;;;0.93;100.00
68889;BME280;55930;47.412;8.790;2022-12-07T17:29:32;94298.19;;;0.91;100.00
68889;BME280;55930;47.412;8.790;2022-12-07T17:32:52;94302.41;;;0.85;100.00
68889;BME280;55930;47.412;8.790;2022-12-07T17:36:21;94296.66;;;0.94;100.00
68889;BME280;55930;47.412;8.790;2022-12-07T17:39:42;94299.63;;;0.96;100.00
68889;BME280;55930;47.412;8.790;2022-12-07T17:43:03;94299.06;;;0.85;100.00
68889;BME280;55930;47.412;8.790;2022-12-07T17:46:26;94302.94;;;0.76;100.00
68889;BME280;55930;47.412;8.790;2022-12-07T17:49:46;94297.25;;;0.82;100.00
68889;BME280;55930;47.412;8.790;2022-12-07T17:53:09;94292.63;;;0.89;100.00
68889;BME280;55930;47.412;8.790;2022-12-07T17:56:31;94290.56;;;0.81;100.00
68889;BME280;55930;47.412;8.790;2022-12-07T17:59:52;94279.84;;;0.75;100.00
68889;BME280;55930;47.412;8.790;2022-12-07T18:03:14;94286.69;;;0.69;100.00
68889;BME280;55930;47.412;8.790;2022-12-07T18:06:37;94280.59;;;0.75;100.00
68889;BME280;55930;47.412;8.790;2022-12-07T18:10:00;94279.25;;;0.67;100.00
68889;BME280;55930;47.412;8.790;2022-12-07T18:13:20;94283.19;;;0.56;100.00
68889;BME280;55930;47.412;8.790;2022-12-07T18:16:55;94283.34;;;0.68;100.00
68889;BME280;55930;47.412;8.790;2022-12-07T18:20:15;94283.72;;;0.67;100.00
68889;BME280;55930;47.412;8.790;2022-12-07T18:23:36;94285.38;;;0.57;100.00
68889;BME280;55930;47.412;8.790;2022-12-07T18:26:56;94283.47;;;0.61;100.00
68889;BME280;55930;47.412;8.790;2022-12-07T18:30:18;94288.81;;;0.54;100.00
68889;BME280;55930;47.412;8.790;2022-12-07T18:33:39;94276.13;;;0.33;100.00
68889;BME280;55930;47.412;8.790;2022-12-07T18:37:05;94274.47;;;0.43;100.00
68889;BME280;55930;47.412;8.790;2022-12-07T18:40:26;94276.63;;;0.48;100.00
68889;BME280;55930;47.412;8.790;2022-12-07T18:43:46;94272.56;;;0.66;100.00
68889;BME280;55930;47.412;8.790;2022-12-07T18:47:07;94272.34;;;0.57;100.00
68889;BME280;55930;47.412;8.790;2022-12-07T18:50:28;94275.47;;;0.29;100.00
68889;BME280;55930;47.412;8.790;2022-12-07T18:53:49;94275.34;;;0.36;100.00
68889;BME280;55930;47.412;8.790;2022-12-07T18:57:09;94269.03;;;0.33;100.00
68889;BME280;55930;47.412;8.790;2022-12-07T19:00:32;94265.69;;;0.33;100.00
68889;BME280;55930;47.412;8.790;2022-12-07T19:03:52;94252.88;;;0.42;100.00
68889;BME280;55930;47.412;8.790;2022-12-07T19:07:13;94251.06;;;0.39;100.00
68889;BME280;55930;47.412;8.790;2022-12-07T19:10:33;94251.19;;;0.32;100.00
68889;BME280;55930;47.412;8.790;2022-12-07T19:13:54;94244.69;;;0.40;100.00
68889;BME280;55930;47.412;8.790;2022-12-07T19:17:14;94243.56;;;0.41;100.00
68889;BME280;55930;47.412;8.790;2022-12-07T19:20:35;94245.84;;;0.39;100.00
68889;BME280;55930;47.412;8.790;2022-12-07T19:23:55;94232.84;;;0.35;100.00
68889;BME280;55930;47.412;8.790;2022-12-07T19:27:16;94236.16;;;0.40;100.00
68889;BME280;55930;47.412;8.790;2022-12-07T19:30:37;94239.56;;;0.56;100.00
68889;BME280;55930;47.412;8.790;2022-12-07T19:33:57;94241.09;;;0.54;100.00
68889;BME280;55930;47.412;8.790;2022-12-07T19:37:18;94232.00;;;0.42;100.00
68889;BME280;55930;47.412;8.790;2022-12-07T19:40:38;94236.22;;;0.36;100.00
68889;BME280;55930;47.412;8.790;2022-12-07T19:44:00;94234.88;;;0.48;100.00
68889;BME280;55930;47.412;8.790;2022-12-07T19:47:21;94237.38;;;0.55;100.00